createdAt,value
2022-11-23T00:01:21.498Z,99926.30
2022-11-23T00:06:27.629Z,99925.87
2022-11-23T00:11:35.879Z,99924.72
2022-11-23T00:16:41.439Z,99924.72
2022-11-23T00:21:46.916Z,99934.08
2022-11-23T00:26:52.316Z,99925.52
2022-11-23T00:31:57.764Z,99916.69
2022-11-23T00:37:03.215Z,99919.93
2022-11-23T00:42:08.836Z,99923.83
2022-11-23T00:47:14.302Z,99920.13
2022-11-23T00:52:19.891Z,99911.73
2022-11-23T00:57:25.320Z,99919.73
2022-11-23T01:02:31.761Z,99926.14
2022-11-23T01:07:37.961Z,99920.98
2022-11-23T01:12:43.365Z,99924.49
2022-11-23T01:17:48.757Z,99922.11
2022-11-23T01:22:54.310Z,99914.57
2022-11-23T01:27:59.717Z,99911.27
2022-11-23T01:33:05.836Z,99914.64
2022-11-23T01:38:16.659Z,99918.47
2022-11-23T01:43:20.288Z,99914.77
2022-11-23T01:48:31.338Z,99923.10
2022-11-23T01:53:39.327Z,99925.52
2022-11-23T01:58:48.033Z,99939.47
2022-11-23T02:03:55.192Z,99946.22
2022-11-23T02:09:01.019Z,99956.11
2022-11-23T02:14:06.611Z,99948.03
2022-11-23T02:19:39.337Z,99944.52
2022-11-23T02:24:47.850Z,99944.06
2022-11-23T02:29:55.337Z,99935.72
2022-11-23T02:35:00.797Z,99931.09
2022-11-23T02:40:09.346Z,99926.52
2022-11-23T02:45:37.462Z,99944.08
2022-11-23T02:50:43.689Z,99944.08
2022-11-23T02:55:49.139Z,99936.65
2022-11-23T03:00:55.548Z,99941.88
2022-11-23T03:06:00.964Z,99943.28
2022-11-23T03:11:06.757Z,99950.54
2022-11-23T03:16:13.025Z,99951.53
2022-11-23T03:21:19.227Z,99951.53
2022-11-23T03:26:25.345Z,99955.67
2022-11-23T03:31:32.488Z,99959.11
2022-11-23T03:36:38.445Z,99967.70
2022-11-23T03:41:43.833Z,99966.73
2022-11-23T03:46:50.724Z,99966.73
2022-11-23T03:51:56.186Z,99961.60
2022-11-23T03:57:01.742Z,99963.61
2022-11-23T04:02:08.238Z,99971.36
2022-11-23T04:07:15.457Z,99972.75
2022-11-23T04:12:22.814Z,99966.64
2022-11-23T04:17:28.271Z,99967.12
2022-11-23T04:22:34.366Z,99967.12
2022-11-23T04:27:40.132Z,99966.83
2022-11-23T04:32:47.208Z,99973.66
2022-11-23T04:37:52.856Z,99967.45
2022-11-23T04:43:01.753Z,99959.24
2022-11-23T04:48:09.328Z,99968.96
2022-11-23T04:53:15.620Z,99970.49
2022-11-23T04:58:22.721Z,99976.17
2022-11-23T05:03:31.167Z,99967.89
2022-11-23T05:08:39.085Z,99964.13
2022-11-23T05:13:52.829Z,99960.22
2022-11-23T05:18:59.722Z,99955.53
2022-11-23T05:24:06.205Z,99949.98
2022-11-23T05:29:11.925Z,99957.03
2022-11-23T05:34:17.560Z,99964.45
2022-11-23T05:39:23.826Z,99962.39
2022-11-23T05:44:30.386Z,99962.39
2022-11-23T05:49:36.516Z,99969.87
2022-11-23T05:54:42.478Z,99970.80
2022-11-23T05:59:50.065Z,99971.99
2022-11-23T06:04:57.135Z,99972.26
2022-11-23T06:10:06.037Z,99966.34
2022-11-23T06:15:13.032Z,99974.58
2022-11-23T06:20:18.863Z,99970.47
2022-11-23T06:25:26.074Z,99980.33
2022-11-23T06:30:38.942Z,99983.70
2022-11-23T06:35:46.514Z,99992.11
2022-11-23T06:40:52.343Z,99993.97
2022-11-23T06:45:58.555Z,99993.97
2022-11-23T06:51:06.069Z,99989.10
2022-11-23T06:56:13.163Z,99989.10
2022-11-23T07:01:18.775Z,100004.12
2022-11-23T07:06:25.962Z,100003.78
2022-11-23T07:11:33.076Z,99997.49
2022-11-23T07:16:38.810Z,99995.18
2022-11-23T07:21:45.741Z,100001.00
2022-11-23T07:26:52.151Z,100000.54
2022-11-23T07:31:57.860Z,100006.89
2022-11-23T07:37:04.734Z,100010.61
2022-11-23T07:42:31.770Z,100017.88
2022-11-23T07:47:18.284Z,100017.88
2022-11-23T07:52:23.891Z,100022.98
2022-11-23T07:57:29.854Z,100018.28
2022-11-23T08:02:35.346Z,100028.45
2022-11-23T08:07:40.912Z,100036.66
2022-11-23T08:12:46.465Z,100029.77
2022-11-23T08:17:58.495Z,100044.19
2022-11-23T08:23:03.908Z,100044.19
2022-11-23T08:28:09.546Z,100051.56
2022-11-23T08:33:15.950Z,100059.32
2022-11-23T08:38:21.351Z,100059.32
2022-11-23T08:43:27.078Z,100062.27
2022-11-23T08:48:32.566Z,100065.66
2022-11-23T08:53:38.378Z,100060.96
2022-11-23T08:58:43.893Z,100060.48
2022-11-23T09:03:49.295Z,100060.95
2022-11-23T09:08:54.748Z,100059.44
2022-11-23T09:14:00.466Z,100056.81
2022-11-23T09:19:07.413Z,100054.88
2022-11-23T09:24:13.706Z,100061.09
2022-11-23T09:29:19.125Z,100061.16
2022-11-23T09:34:27.021Z,100068.39
2022-11-23T09:39:32.447Z,100058.11
2022-11-23T09:44:51.190Z,100060.09
2022-11-23T09:50:11.587Z,100050.17
2022-11-23T09:55:44.176Z,100052.43
2022-11-23T10:00:52.599Z,100043.55
2022-11-23T10:06:09.944Z,100043.47
2022-11-23T10:11:40.751Z,100035.66
2022-11-23T10:16:49.221Z,100036.63
2022-11-23T10:22:15.555Z,100031.75
2022-11-23T10:27:24.014Z,100038.59
2022-11-23T10:32:38.436Z,100040.18
2022-11-23T10:37:44.273Z,100033.39
2022-11-23T10:42:58.677Z,100033.72
2022-11-23T10:48:04.157Z,100031.92
2022-11-23T10:53:22.440Z,100032.61
2022-11-23T10:58:31.481Z,100028.31
2022-11-23T11:03:36.879Z,100038.65
2022-11-23T11:08:54.653Z,100034.09
2022-11-23T11:14:09.196Z,100028.89
2022-11-23T11:19:32.181Z,100028.86
2022-11-23T11:24:47.722Z,100022.61
2022-11-23T11:30:00.032Z,100025.71
2022-11-23T11:35:29.817Z,100019.73
2022-11-23T11:40:47.340Z,100017.93
2022-11-23T11:46:27.378Z,100018.20
2022-11-23T11:51:30.667Z,100025.48
2022-11-23T11:56:47.276Z,100011.67
2022-11-23T12:01:55.926Z,100016.55
2022-11-23T12:07:07.033Z,100023.12
2022-11-23T12:12:15.934Z,100021.52
2022-11-23T12:17:33.853Z,100024.80
2022-11-23T12:23:00.658Z,100027.35
2022-11-23T12:28:25.394Z,100023.68
2022-11-23T12:33:45.772Z,100016.37
2022-11-23T12:39:02.810Z,100017.95
2022-11-23T12:44:26.573Z,100020.75
2022-11-23T12:49:46.933Z,100012.10
2022-11-23T12:55:15.091Z,100020.05
2022-11-23T13:00:24.243Z,100019.05
2022-11-23T13:05:58.322Z,100027.16
2022-11-23T13:11:18.669Z,100037.22
2022-11-23T13:16:27.240Z,100031.75
2022-11-23T13:21:45.060Z,100038.45
2022-11-23T13:27:10.105Z,100027.98
2022-11-23T13:32:43.181Z,100033.71
2022-11-23T13:38:00.929Z,100032.77
2022-11-23T13:43:31.393Z,100037.01
2022-11-23T13:48:57.172Z,100034.88
2022-11-23T13:54:04.445Z,100036.06
2022-11-23T13:59:25.433Z,100035.12
2022-11-23T14:04:34.082Z,100025.66
2022-11-23T14:10:05.315Z,100025.66
2022-11-23T14:15:25.756Z,100024.33
2022-11-23T14:21:01.886Z,100026.45
2022-11-23T14:26:35.982Z,100047.66
2022-11-23T14:31:59.680Z,100045.83
2022-11-23T14:37:31.203Z,100047.98
2022-11-23T14:42:39.641Z,100050.78
2022-11-23T14:47:45.027Z,100051.18
2022-11-23T14:52:52.575Z,100055.70
2022-11-23T14:58:03.593Z,100055.05
2022-11-23T15:03:49.249Z,100064.55
2022-11-23T15:08:33.687Z,100069.53
2022-11-23T15:13:48.070Z,100073.69
2022-11-23T15:18:53.469Z,100080.39
2022-11-23T15:24:00.542Z,100087.42
2022-11-23T15:29:06.062Z,100087.24
2022-11-23T15:34:17.484Z,100079.53
2022-11-23T15:39:24.506Z,100081.33
2022-11-23T15:44:33.447Z,100085.41
2022-11-23T15:49:40.508Z,100079.75
2022-11-23T15:54:46.850Z,100079.28
2022-11-23T15:59:58.103Z,100083.97
2022-11-23T16:05:25.475Z,100082.83
2022-11-23T16:10:35.093Z,100078.34
2022-11-23T16:15:43.699Z,100082.25
2022-11-23T16:20:54.794Z,100088.48
2022-11-23T16:26:06.201Z,100085.03
2022-11-23T16:31:20.369Z,100078.38
2022-11-23T16:36:30.180Z,100077.98
2022-11-23T16:41:36.500Z,100090.31
2022-11-23T16:46:43.942Z,100088.02
2022-11-23T16:51:57.166Z,100094.76
2022-11-23T16:57:02.090Z,100103.25
2022-11-23T17:02:10.564Z,100104.39
2022-11-23T17:07:17.066Z,100102.98
2022-11-23T17:12:22.706Z,100104.31
2022-11-23T17:17:30.043Z,100108.83
2022-11-23T17:22:35.431Z,100117.95
2022-11-23T17:27:43.912Z,100114.57
2022-11-23T17:32:50.228Z,100118.50
2022-11-23T17:37:56.043Z,100125.98
2022-11-23T17:43:01.518Z,100132.48
2022-11-23T17:48:07.240Z,100136.39
2022-11-23T17:53:12.650Z,100140.02
2022-11-23T17:58:18.133Z,100146.78
2022-11-23T18:03:23.680Z,100143.48
2022-11-23T18:08:29.053Z,100156.16
2022-11-23T18:13:34.474Z,100151.78
2022-11-23T18:18:40.505Z,100150.83
2022-11-23T18:23:46.362Z,100149.56
2022-11-23T18:28:52.492Z,100149.56
2022-11-23T18:33:57.891Z,100148.05
2022-11-23T18:39:03.685Z,100152.32
2022-11-23T18:44:09.093Z,100150.93
2022-11-23T18:49:14.513Z,100154.17
2022-11-23T18:54:19.973Z,100153.98
2022-11-23T18:59:56.207Z,100156.66
2022-11-23T19:04:34.424Z,100148.81
2022-11-23T19:09:39.901Z,100141.92
2022-11-23T19:14:46.947Z,100136.75
2022-11-23T19:19:52.358Z,100136.75
2022-11-23T19:24:57.968Z,100154.27
2022-11-23T19:30:09.249Z,100156.19
2022-11-23T19:35:15.239Z,100160.62
2022-11-23T19:40:20.728Z,100162.08
2022-11-23T19:45:26.131Z,100168.89
2022-11-23T19:50:31.542Z,100167.98
2022-11-23T19:55:37.731Z,100169.88
2022-11-23T20:00:47.203Z,100169.88
2022-11-23T20:06:00.273Z,100161.06
2022-11-23T20:11:13.916Z,100171.76
2022-11-23T20:16:21.341Z,100173.59
2022-11-23T20:21:28.279Z,100176.53
2022-11-23T20:26:36.221Z,100176.53
2022-11-23T20:31:41.944Z,100192.73
2022-11-23T20:36:47.593Z,100205.98
2022-11-23T20:41:53.172Z,100208.50
2022-11-23T20:47:02.948Z,100203.27
2022-11-23T20:52:06.239Z,100203.27
2022-11-23T20:57:11.694Z,100201.19
2022-11-23T21:02:17.493Z,100199.53
2022-11-23T21:07:23.231Z,100204.30
2022-11-23T21:12:50.474Z,100198.83
2022-11-23T21:17:54.193Z,100198.30
2022-11-23T21:22:59.606Z,100204.98
2022-11-23T21:28:05.202Z,100202.74
2022-11-23T21:33:11.314Z,100207.58
2022-11-23T21:38:16.732Z,100214.67
2022-11-23T21:43:22.150Z,100224.38
2022-11-23T21:48:28.021Z,100230.22
2022-11-23T21:53:34.555Z,100229.99
2022-11-23T21:58:41.238Z,100226.31
2022-11-23T22:03:52.966Z,100224.52
2022-11-23T22:09:01.364Z,100224.72
2022-11-23T22:14:12.470Z,100236.31
2022-11-23T22:19:19.100Z,100236.31
2022-11-23T22:24:24.702Z,100237.08
2022-11-23T22:29:30.239Z,100245.33
2022-11-23T22:34:36.066Z,100252.13
2022-11-23T22:39:41.744Z,100253.85
2022-11-23T22:44:47.200Z,100275.59
2022-11-23T22:49:52.735Z,100272.78
2022-11-23T22:54:58.187Z,100275.30
2022-11-23T23:00:03.708Z,100288.34
2022-11-23T23:05:09.877Z,100281.17
2022-11-23T23:10:15.411Z,100290.95
2022-11-23T23:15:21.366Z,100290.95
2022-11-23T23:20:26.904Z,100290.48
2022-11-23T23:25:33.281Z,100287.57
2022-11-23T23:30:38.757Z,100285.05
2022-11-23T23:35:44.843Z,100297.58
2022-11-23T23:40:50.311Z,100292.48
2022-11-23T23:46:01.361Z,100296.92
2022-11-23T23:51:08.837Z,100302.80
2022-11-23T23:56:17.447Z,100304.32
